首页
METAR-TAF:

METAR-TAF

机场 :

弗林特, 密歇根州, 美国

纬度: 42-58-00N, 经度: 083-44-58W, 海拔: 238米

当前天气观测

该预报发布于36分钟前的06:53 UTC
风速6节,风向西北
温度 16°C
湿度 72%
气压 1017 hPa
能見度: 16.1公里
天空无云

METAR: KFNT 230653Z AUTO 31006KT 10SM CLR 16/11 A3003 RMK AO2 RAB30E39 SLP165 P0000 T01560106

时间: 03:29 (07:29 UTC)

预报

该预报发布于2小时和6分钟前的05:23 UTC
预报有效从23日的 06点(UTC)到 24日的 06点(UTC)
风速5节,风向西
能見度: 10公里
散云层高于8000英尺
从 23日的 1500点(UTC)
风速10节,风向北转西北
能見度: 10公里
散云层高于6000英尺
从 23日的 1900点(UTC)
风速12节,风向北转西北
能見度: 10公里
多云层高于6000英尺
几率 30%
从 23日的 20点(UTC)到 23日的 22点(UTC)
能見度: 8.0公里
多云层高于4500英尺
阴天层高于6000英尺
阵雨
从 24日的 0000点(UTC)
风速5节,风向北转西北
能見度: 10公里
天空无云

TAF: KFNT 230523Z 2306/2406 28005KT P6SM SCT080 FM231500 33010KT P6SM SCT060 FM231900 34012KT P6SM BKN060 PROB30 2320/2322 5SM SHRA BKN045 OVC060 FM240000 33005KT P6SM SKC

超过4000个机场的气象观测和天气预报(METAR&TAF报告)。

可查询的气象台以黄色和红色小点在地图上表示。

将鼠标移到小点上方,可查看气象台名称。

然后点击查看天气观测和预报。

如需切换地图:点击带黑十字的绿色按钮放大地图;点击带横线的绿色按钮缩小地图;或者点击绿色箭头查看邻近地区的地图。


METAR-TAF: